createdAt,value
2018-07-21T00:02:04.326Z,9.50
2018-07-21T00:04:33.656Z,8.87
2018-07-21T00:07:03.275Z,7.80
2018-07-21T00:09:33.739Z,7.77
2018-07-21T00:12:03.436Z,7.50
2018-07-21T00:14:33.258Z,7.43
2018-07-21T00:17:03.162Z,7.37
2018-07-21T00:19:33.556Z,7.43
2018-07-21T00:22:03.014Z,7.70
2018-07-21T00:24:32.622Z,7.33
2018-07-21T00:27:02.916Z,6.47
2018-07-21T00:29:32.908Z,6.57
2018-07-21T00:32:03.202Z,6.70
2018-07-21T00:34:33.615Z,6.10
2018-07-21T00:37:04.229Z,7.00
2018-07-21T00:39:34.207Z,6.40
2018-07-21T00:42:06.094Z,5.77
2018-07-21T00:44:36.270Z,6.30
2018-07-21T00:47:06.258Z,5.73
2018-07-21T00:49:36.989Z,5.33
2018-07-21T00:52:07.056Z,5.67
2018-07-21T00:54:36.954Z,5.30
2018-07-21T00:57:06.849Z,5.67
2018-07-21T00:59:37.267Z,5.50
2018-07-21T01:02:07.660Z,5.73
2018-07-21T01:04:37.966Z,6.00
2018-07-21T01:07:08.897Z,5.70
2018-07-21T01:09:39.390Z,5.63
2018-07-21T01:12:10.187Z,6.33
2018-07-21T01:14:40.303Z,6.27
2018-07-21T01:17:10.200Z,6.00
2018-07-21T01:19:40.474Z,5.30
2018-07-21T01:22:11.031Z,5.80
2018-07-21T01:24:42.459Z,6.00
2018-07-21T01:27:12.343Z,5.40
2018-07-21T01:29:42.647Z,5.50
2018-07-21T01:32:12.961Z,5.60
2018-07-21T01:34:43.342Z,5.70
2018-07-21T01:37:14.387Z,5.40
2018-07-21T01:39:43.914Z,5.83
2018-07-21T01:42:14.330Z,5.43
2018-07-21T01:44:44.246Z,5.70
2018-07-21T01:47:15.050Z,5.23
2018-07-21T01:49:45.060Z,5.70
2018-07-21T01:52:14.510Z,5.67
2018-07-21T01:54:44.615Z,5.47
2018-07-21T01:57:14.082Z,6.00
2018-07-21T01:59:44.474Z,5.50
2018-07-21T02:02:14.410Z,5.47
2018-07-21T02:04:43.975Z,4.80
2018-07-21T02:07:13.164Z,4.80
2018-07-21T02:09:43.567Z,5.80
2018-07-21T02:12:14.550Z,5.23
2018-07-21T02:14:44.990Z,6.30
2018-07-21T02:17:14.870Z,5.30
2018-07-21T02:19:44.705Z,5.50
2018-07-21T02:22:15.389Z,5.23
2018-07-21T02:24:45.585Z,6.63
2018-07-21T02:27:15.762Z,5.70
2018-07-21T02:29:45.474Z,5.00
2018-07-21T02:32:15.978Z,5.23
2018-07-21T02:34:46.184Z,4.90
2018-07-21T02:37:16.191Z,5.07
2018-07-21T02:39:46.222Z,5.10
2018-07-21T02:42:16.685Z,5.13
2018-07-21T02:44:46.466Z,5.43
2018-07-21T02:47:16.453Z,5.20
2018-07-21T02:49:46.545Z,4.97
2018-07-21T02:52:16.952Z,4.80
2018-07-21T02:54:47.357Z,5.20
2018-07-21T02:57:16.961Z,5.20
2018-07-21T02:59:47.215Z,5.20
2018-07-21T03:02:17.948Z,5.13
2018-07-21T03:04:47.372Z,5.10
2018-07-21T03:07:18.160Z,4.80
2018-07-21T03:09:48.320Z,5.00
2018-07-21T03:12:18.263Z,5.03
2018-07-21T03:14:48.398Z,4.97
2018-07-21T03:17:18.943Z,4.90
2018-07-21T03:19:49.013Z,4.80
2018-07-21T03:22:19.347Z,4.77
2018-07-21T03:24:49.290Z,5.50
2018-07-21T03:27:19.393Z,4.90
2018-07-21T03:29:49.591Z,5.80
2018-07-21T03:32:19.790Z,5.50
2018-07-21T03:34:49.776Z,6.10
2018-07-21T03:37:20.002Z,7.27
2018-07-21T03:39:50.027Z,7.40
2018-07-21T03:42:20.031Z,7.40
2018-07-21T03:44:49.687Z,7.83
2018-07-21T03:47:19.537Z,7.00
2018-07-21T03:49:49.153Z,7.63
2018-07-21T03:52:19.089Z,7.40
2018-07-21T03:54:47.985Z,7.03
2018-07-21T03:57:17.042Z,6.80
2018-07-21T03:59:46.939Z,6.60
2018-07-21T04:02:16.183Z,7.57
2018-07-21T04:04:46.185Z,9.10
2018-07-21T04:07:16.070Z,9.20
2018-07-21T04:09:45.467Z,9.40
2018-07-21T04:12:16.138Z,8.07
2018-07-21T04:14:46.078Z,7.83
2018-07-21T04:17:23.506Z,8.23
2018-07-21T04:19:54.207Z,12.37
2018-07-21T04:22:24.667Z,9.47
2018-07-21T04:24:54.959Z,9.00
2018-07-21T04:27:26.202Z,9.20
2018-07-21T04:29:58.070Z,10.20
2018-07-21T04:32:27.665Z,9.70
2018-07-21T04:34:57.581Z,9.40
2018-07-21T04:37:27.962Z,10.10
2018-07-21T04:39:57.746Z,9.83
2018-07-21T04:42:27.998Z,9.60
2018-07-21T04:44:57.550Z,9.73
2018-07-21T04:47:27.261Z,10.97
2018-07-21T04:49:56.939Z,10.97
2018-07-21T04:52:26.410Z,10.30
2018-07-21T04:54:56.077Z,11.43
2018-07-21T04:57:26.446Z,11.13
2018-07-21T04:59:56.971Z,12.20
2018-07-21T05:02:28.082Z,12.20
2018-07-21T05:04:58.116Z,12.23
2018-07-21T05:07:28.150Z,11.73
2018-07-21T05:09:57.846Z,11.70
2018-07-21T05:12:28.050Z,11.30
2018-07-21T05:14:58.068Z,11.17
2018-07-21T05:17:29.197Z,11.20
2018-07-21T05:20:00.090Z,11.27
2018-07-21T05:22:29.958Z,10.97
2018-07-21T05:24:59.726Z,11.43
2018-07-21T05:27:30.278Z,12.03
2018-07-21T05:30:00.184Z,11.17
2018-07-21T05:32:30.278Z,11.97
2018-07-21T05:35:00.498Z,12.70
2018-07-21T05:37:29.987Z,13.00
2018-07-21T05:40:00.334Z,12.67
2018-07-21T05:42:30.230Z,11.73
2018-07-21T05:45:00.706Z,11.67
2018-07-21T05:47:30.259Z,12.10
2018-07-21T05:50:01.059Z,12.00
2018-07-21T05:52:31.479Z,12.77
2018-07-21T05:55:01.223Z,12.13
2018-07-21T05:57:31.002Z,12.37
2018-07-21T06:00:01.686Z,12.70
2018-07-21T06:02:31.916Z,12.00
2018-07-21T06:05:01.736Z,11.03
2018-07-21T06:07:31.844Z,12.10
2018-07-21T06:10:01.846Z,11.57
2018-07-21T06:12:31.639Z,12.40
2018-07-21T06:15:02.074Z,11.83
2018-07-21T06:17:32.011Z,10.93
2018-07-21T06:20:02.050Z,12.07
2018-07-21T06:22:33.890Z,12.13
2018-07-21T06:25:04.967Z,12.20
2018-07-21T06:27:35.403Z,11.53
2018-07-21T06:30:06.043Z,10.70
2018-07-21T06:32:35.783Z,11.70
2018-07-21T06:35:06.607Z,12.80
2018-07-21T06:37:37.783Z,12.30
2018-07-21T06:40:07.860Z,11.20
2018-07-21T06:42:37.894Z,12.43
2018-07-21T06:45:08.271Z,13.17
2018-07-21T06:47:38.698Z,12.40
2018-07-21T06:50:09.163Z,11.77
2018-07-21T06:52:40.417Z,11.07
2018-07-21T06:55:12.215Z,11.07
2018-07-21T06:57:44.082Z,9.60
2018-07-21T07:00:14.807Z,8.40
2018-07-21T07:02:45.570Z,8.00
2018-07-21T07:05:16.088Z,10.00
2018-07-21T07:07:46.750Z,9.17
2018-07-21T07:10:16.699Z,10.13
2018-07-21T07:12:45.831Z,11.00
2018-07-21T07:15:16.806Z,10.77
2018-07-21T07:17:46.310Z,9.07
2018-07-21T07:20:16.062Z,9.17
2018-07-21T07:22:45.402Z,8.80
2018-07-21T07:25:15.378Z,8.93
2018-07-21T07:27:45.193Z,8.20
2018-07-21T07:30:15.275Z,8.73
2018-07-21T07:32:44.752Z,7.73
2018-07-21T07:35:14.693Z,8.70
2018-07-21T07:37:45.875Z,9.87
2018-07-21T07:40:15.590Z,9.17
2018-07-21T07:42:45.123Z,9.97
2018-07-21T07:45:14.837Z,9.30
2018-07-21T07:47:44.615Z,9.47
2018-07-21T07:50:15.282Z,9.27
2018-07-21T07:52:45.385Z,9.60
2018-07-21T07:55:14.891Z,9.13
2018-07-21T07:57:44.542Z,8.53
2018-07-21T08:00:14.619Z,7.80
2018-07-21T08:02:44.469Z,7.40
2018-07-21T08:05:14.202Z,8.47
2018-07-21T08:07:43.114Z,5.90
2018-07-21T08:10:13.466Z,6.57
2018-07-21T08:12:43.126Z,6.20
2018-07-21T08:15:12.587Z,5.47
2018-07-21T08:17:42.862Z,6.20
2018-07-21T08:20:12.942Z,7.50
2018-07-21T08:22:42.339Z,6.90
2018-07-21T08:25:12.408Z,7.37
2018-07-21T08:27:42.802Z,6.70
2018-07-21T08:30:13.024Z,7.03
2018-07-21T08:32:43.035Z,6.83
2018-07-21T08:35:13.375Z,6.27
2018-07-21T08:37:42.862Z,5.07
2018-07-21T08:40:12.043Z,7.10
2018-07-21T08:42:41.762Z,5.80
2018-07-21T08:45:12.923Z,5.70
2018-07-21T08:47:44.131Z,5.30
2018-07-21T08:50:14.786Z,6.17
2018-07-21T08:52:45.269Z,6.00
2018-07-21T08:55:15.152Z,7.00
2018-07-21T08:57:45.302Z,6.90
2018-07-21T09:00:14.918Z,7.00
2018-07-21T09:02:44.199Z,6.27
2018-07-21T09:05:13.565Z,5.97
2018-07-21T09:07:43.206Z,6.63
2018-07-21T09:10:13.344Z,6.67
2018-07-21T09:12:44.040Z,6.07
2018-07-21T09:15:13.765Z,6.47
2018-07-21T09:17:44.207Z,5.73
2018-07-21T09:20:14.278Z,6.27
2018-07-21T09:22:44.117Z,5.87
2018-07-21T09:25:14.646Z,6.70
2018-07-21T09:27:44.250Z,6.57
2018-07-21T09:30:14.591Z,5.67
2018-07-21T09:32:44.198Z,6.63
2018-07-21T09:35:14.254Z,7.07
2018-07-21T09:37:44.151Z,6.80
2018-07-21T09:40:13.747Z,6.77
2018-07-21T09:42:44.023Z,5.73
2018-07-21T09:45:13.451Z,5.33
2018-07-21T09:47:43.466Z,5.90
2018-07-21T09:50:13.465Z,5.37
2018-07-21T09:52:43.203Z,5.20
2018-07-21T09:55:13.926Z,4.30
2018-07-21T09:57:44.473Z,4.50
2018-07-21T10:00:18.116Z,5.50
2018-07-21T10:02:47.743Z,4.60
2018-07-21T10:05:17.345Z,5.20
2018-07-21T10:07:46.919Z,4.87
2018-07-21T10:10:16.947Z,5.10
2018-07-21T10:12:47.263Z,4.30
2018-07-21T10:15:17.899Z,5.00
2018-07-21T10:17:48.494Z,6.33
2018-07-21T10:20:18.234Z,5.57
2018-07-21T10:22:47.999Z,5.23
2018-07-21T10:25:23.531Z,5.73
2018-07-21T10:27:58.442Z,6.53
2018-07-21T10:30:28.417Z,5.30
2018-07-21T10:32:58.196Z,5.80
2018-07-21T10:35:27.804Z,6.00
2018-07-21T10:37:58.119Z,6.43
2018-07-21T10:40:27.668Z,5.37
2018-07-21T10:42:58.402Z,5.00
2018-07-21T10:45:29.636Z,6.63
2018-07-21T10:47:59.676Z,5.90
2018-07-21T10:50:28.662Z,6.07
2018-07-21T10:52:59.111Z,6.00
2018-07-21T10:55:29.194Z,6.03
2018-07-21T10:57:58.807Z,6.20
2018-07-21T11:00:28.379Z,4.60
2018-07-21T11:02:57.719Z,6.07
2018-07-21T11:05:28.963Z,5.40
2018-07-21T11:07:58.547Z,5.63
2018-07-21T11:10:28.618Z,5.07
2018-07-21T11:12:58.840Z,5.57
2018-07-21T11:15:29.100Z,6.03
2018-07-21T11:18:00.164Z,5.67
2018-07-21T11:20:29.914Z,5.33
2018-07-21T11:22:59.072Z,6.00
2018-07-21T11:25:29.603Z,5.90
2018-07-21T11:27:59.081Z,5.50
2018-07-21T11:30:28.589Z,5.90
2018-07-21T11:32:58.326Z,6.53
2018-07-21T11:35:28.133Z,6.20
2018-07-21T11:37:58.254Z,7.20
2018-07-21T11:40:27.460Z,6.50
2018-07-21T11:42:57.094Z,5.40
2018-07-21T11:45:26.283Z,5.90
2018-07-21T11:47:56.375Z,5.83
2018-07-21T11:50:27.913Z,5.30
2018-07-21T11:52:58.654Z,5.57
2018-07-21T11:55:28.633Z,5.50
2018-07-21T11:57:58.206Z,5.63
2018-07-21T12:00:28.886Z,5.17
2018-07-21T12:02:59.540Z,5.13
2018-07-21T12:05:29.123Z,5.13
2018-07-21T12:07:58.918Z,6.10
2018-07-21T12:10:28.498Z,5.60
2018-07-21T12:12:58.078Z,5.60
2018-07-21T12:15:28.018Z,5.53
2018-07-21T12:17:58.319Z,6.30
2018-07-21T12:20:27.559Z,5.20
2018-07-21T12:22:57.164Z,5.77
2018-07-21T12:25:27.033Z,5.80
2018-07-21T12:27:56.491Z,5.60
2018-07-21T12:30:26.995Z,6.20
2018-07-21T12:32:56.771Z,5.87
2018-07-21T12:35:26.611Z,5.33
2018-07-21T12:37:57.387Z,5.47
2018-07-21T12:40:26.961Z,6.63
2018-07-21T12:42:56.945Z,6.50
2018-07-21T12:45:27.026Z,6.00
2018-07-21T12:47:56.960Z,6.70
2018-07-21T12:50:26.910Z,6.17
2018-07-21T12:52:57.422Z,6.80
2018-07-21T12:55:27.304Z,6.37
2018-07-21T12:57:59.047Z,6.50
2018-07-21T13:00:28.398Z,6.57
2018-07-21T13:02:58.492Z,6.43
2018-07-21T13:05:28.047Z,6.40
2018-07-21T13:07:58.599Z,6.00
2018-07-21T13:10:29.050Z,6.00
2018-07-21T13:12:58.760Z,6.57
2018-07-21T13:15:28.183Z,5.80
2018-07-21T13:17:58.180Z,5.90
2018-07-21T13:20:27.992Z,6.13
2018-07-21T13:22:59.210Z,6.40
2018-07-21T13:25:29.186Z,5.93
2018-07-21T13:28:00.377Z,6.20
2018-07-21T13:30:30.674Z,5.87
2018-07-21T13:33:00.847Z,5.37
2018-07-21T13:35:31.047Z,5.93
2018-07-21T13:38:01.381Z,6.20
2018-07-21T13:40:31.299Z,6.40
2018-07-21T13:43:03.107Z,5.83
2018-07-21T13:45:32.298Z,5.53
2018-07-21T13:48:01.741Z,5.90
2018-07-21T13:50:33.278Z,6.33
2018-07-21T13:53:02.552Z,6.10
2018-07-21T13:55:33.670Z,6.13
2018-07-21T13:58:04.210Z,6.00
2018-07-21T14:00:34.143Z,5.77
2018-07-21T14:03:04.607Z,6.50
2018-07-21T14:05:34.811Z,6.03
2018-07-21T14:08:04.686Z,5.43
2018-07-21T14:10:35.011Z,5.90
2018-07-21T14:13:06.198Z,6.03
2018-07-21T14:15:36.374Z,5.90
2018-07-21T14:18:07.211Z,5.53
2018-07-21T14:20:37.132Z,6.33
2018-07-21T14:23:06.950Z,5.83
2018-07-21T14:25:36.650Z,6.13
2018-07-21T14:28:06.262Z,6.17
2018-07-21T14:30:37.699Z,5.90
2018-07-21T14:33:07.623Z,5.70
2018-07-21T14:35:37.491Z,5.40
2018-07-21T14:38:07.779Z,6.10
2018-07-21T14:40:37.688Z,5.53
2018-07-21T14:43:07.546Z,5.77
2018-07-21T14:45:38.046Z,6.00
2018-07-21T14:48:07.924Z,6.20
2018-07-21T14:50:38.865Z,6.07
2018-07-21T14:53:08.647Z,5.63
2018-07-21T14:55:37.843Z,6.27
2018-07-21T14:58:07.112Z,6.17
2018-07-21T15:00:37.235Z,6.37
2018-07-21T15:03:06.814Z,6.17
2018-07-21T15:05:37.374Z,6.57
2018-07-21T15:08:07.503Z,6.30
2018-07-21T15:10:38.942Z,6.60
2018-07-21T15:13:08.487Z,6.13
2018-07-21T15:15:38.314Z,6.50
2018-07-21T15:18:07.938Z,6.13
2018-07-21T15:20:37.551Z,6.60
2018-07-21T15:23:07.307Z,6.37
2018-07-21T15:25:37.238Z,6.23
2018-07-21T15:28:07.857Z,6.30
2018-07-21T15:30:38.142Z,6.30
2018-07-21T15:33:07.958Z,6.80
2018-07-21T15:35:38.757Z,6.47
2018-07-21T15:38:09.304Z,6.40
2018-07-21T15:40:39.578Z,6.30
2018-07-21T15:43:09.807Z,5.80
2018-07-21T15:45:40.173Z,6.13
2018-07-21T15:48:10.160Z,6.20
2018-07-21T15:50:39.823Z,5.90
2018-07-21T15:53:10.451Z,6.23
2018-07-21T15:55:39.866Z,6.53
2018-07-21T15:58:09.672Z,6.17
2018-07-21T16:00:38.529Z,5.77
2018-07-21T16:03:08.478Z,5.80
2018-07-21T16:05:38.182Z,6.07
2018-07-21T16:08:08.601Z,6.37
2018-07-21T16:10:39.003Z,5.70
2018-07-21T16:13:09.413Z,6.03
2018-07-21T16:15:39.183Z,5.87
2018-07-21T16:18:08.387Z,5.73
2018-07-21T16:20:38.070Z,6.17
2018-07-21T16:23:08.111Z,5.97
2018-07-21T16:25:37.694Z,6.50
2018-07-21T16:28:07.153Z,6.00
2018-07-21T16:30:37.135Z,6.00
2018-07-21T16:33:07.751Z,6.30
2018-07-21T16:35:37.634Z,6.60
2018-07-21T16:38:08.458Z,5.57
2018-07-21T16:40:38.876Z,5.63
2018-07-21T16:43:08.886Z,6.00
2018-07-21T16:45:39.014Z,5.67
2018-07-21T16:48:09.238Z,6.20
2018-07-21T16:50:40.391Z,5.93
2018-07-21T16:53:10.266Z,6.10
2018-07-21T16:55:40.822Z,6.03
2018-07-21T16:58:10.962Z,5.33
2018-07-21T17:00:41.313Z,6.07
2018-07-21T17:03:11.606Z,5.93
2018-07-21T17:05:41.166Z,6.50
2018-07-21T17:08:10.619Z,7.10
2018-07-21T17:10:40.286Z,6.83
2018-07-21T17:13:12.286Z,6.53
2018-07-21T17:15:42.296Z,7.17
2018-07-21T17:18:12.443Z,7.73
2018-07-21T17:20:41.618Z,7.30
2018-07-21T17:23:11.934Z,7.40
2018-07-21T17:25:42.972Z,7.13
2018-07-21T17:28:12.395Z,7.30
2018-07-21T17:30:42.279Z,7.20
2018-07-21T17:33:12.306Z,7.23
2018-07-21T17:35:41.742Z,7.40
2018-07-21T17:38:12.035Z,7.43
2018-07-21T17:40:43.075Z,7.37
2018-07-21T17:43:13.609Z,7.77
2018-07-21T17:45:44.182Z,8.07
2018-07-21T17:48:15.205Z,7.80
2018-07-21T17:50:45.122Z,7.27
2018-07-21T17:53:16.036Z,7.00
2018-07-21T17:55:45.881Z,7.70
2018-07-21T17:58:15.876Z,7.90
2018-07-21T18:00:45.878Z,8.57
2018-07-21T18:03:16.301Z,9.50
2018-07-21T18:05:46.382Z,9.87
2018-07-21T18:08:15.846Z,9.97
2018-07-21T18:10:45.530Z,10.37
2018-07-21T18:13:16.149Z,10.03
2018-07-21T18:15:46.209Z,10.50
2018-07-21T18:18:16.621Z,9.57
2018-07-21T18:20:46.030Z,10.17
2018-07-21T18:23:15.715Z,9.50
2018-07-21T18:25:45.059Z,9.27
2018-07-21T18:28:15.227Z,9.00
2018-07-21T18:30:44.649Z,8.30
2018-07-21T18:33:13.963Z,7.63
2018-07-21T18:35:43.246Z,8.27
2018-07-21T18:38:14.557Z,8.13
2018-07-21T18:40:44.202Z,8.43
2018-07-21T18:43:14.471Z,8.73
2018-07-21T18:45:44.320Z,9.50
2018-07-21T18:48:13.882Z,9.03
2018-07-21T18:50:43.515Z,10.00
2018-07-21T18:53:13.451Z,10.43
2018-07-21T18:55:43.353Z,11.93
2018-07-21T18:58:12.839Z,11.87
2018-07-21T19:00:44.550Z,12.03
2018-07-21T19:03:15.210Z,11.67
2018-07-21T19:05:45.899Z,11.40
2018-07-21T19:08:20.755Z,12.20
2018-07-21T19:10:50.787Z,11.80
2018-07-21T19:13:20.355Z,12.40
2018-07-21T19:15:55.922Z,12.27
2018-07-21T19:18:25.850Z,12.33
2018-07-21T19:21:00.815Z,12.13
2018-07-21T19:23:30.892Z,12.67
2018-07-21T19:26:05.766Z,11.80
2018-07-21T19:28:35.669Z,11.97
2018-07-21T19:31:05.102Z,12.20
2018-07-21T19:33:35.890Z,11.70
2018-07-21T19:36:06.134Z,10.93
2018-07-21T19:38:36.436Z,11.37
2018-07-21T19:41:12.259Z,10.60
2018-07-21T19:43:42.910Z,11.43
2018-07-21T19:46:12.892Z,10.87
2018-07-21T19:48:44.110Z,10.17
2018-07-21T19:51:14.719Z,10.13
2018-07-21T19:53:46.252Z,10.30
2018-07-21T19:56:16.781Z,10.10
2018-07-21T19:58:46.962Z,11.00
2018-07-21T20:01:17.391Z,9.50
2018-07-21T20:03:47.503Z,9.37
2018-07-21T20:06:17.242Z,8.97
2018-07-21T20:08:47.141Z,9.40
2018-07-21T20:11:17.875Z,8.27
2018-07-21T20:13:47.477Z,8.90
2018-07-21T20:16:18.331Z,8.43
2018-07-21T20:18:48.866Z,8.27
2018-07-21T20:21:18.147Z,8.20
2018-07-21T20:23:47.951Z,8.57
2018-07-21T20:26:17.519Z,8.00
2018-07-21T20:28:47.835Z,8.70
2018-07-21T20:31:17.831Z,8.37
2018-07-21T20:33:47.993Z,8.60
2018-07-21T20:36:18.146Z,8.90
2018-07-21T20:38:48.062Z,8.90
2018-07-21T20:41:17.771Z,8.90
2018-07-21T20:43:47.847Z,8.83
2018-07-21T20:46:17.687Z,10.33
2018-07-21T20:48:48.130Z,9.00
2018-07-21T20:51:18.251Z,9.93
2018-07-21T20:53:49.593Z,9.10
2018-07-21T20:56:19.423Z,10.57
2018-07-21T20:58:48.835Z,10.77
2018-07-21T21:01:18.020Z,11.43
2018-07-21T21:03:47.758Z,11.47
2018-07-21T21:06:19.012Z,11.73
2018-07-21T21:08:49.206Z,11.67
2018-07-21T21:11:18.899Z,11.07
2018-07-21T21:13:49.002Z,11.20
2018-07-21T21:16:18.734Z,11.23
2018-07-21T21:18:48.842Z,10.03
2018-07-21T21:21:18.819Z,10.50
2018-07-21T21:23:48.474Z,10.83
2018-07-21T21:26:18.232Z,11.13
2018-07-21T21:28:49.162Z,10.37
2018-07-21T21:31:19.566Z,10.33
2018-07-21T21:33:49.250Z,10.93
2018-07-21T21:36:21.004Z,10.70
2018-07-21T21:38:51.282Z,10.20
2018-07-21T21:41:22.417Z,10.20
2018-07-21T21:43:52.205Z,9.07
2018-07-21T21:46:21.870Z,9.23
2018-07-21T21:48:52.642Z,9.03
2018-07-21T21:51:22.857Z,9.37
2018-07-21T21:53:53.320Z,9.43
2018-07-21T21:56:26.098Z,9.20
2018-07-21T21:58:56.276Z,9.83
2018-07-21T22:01:26.933Z,10.63
2018-07-21T22:03:56.649Z,9.67
2018-07-21T22:06:27.211Z,9.07
2018-07-21T22:08:57.219Z,9.10
2018-07-21T22:11:26.835Z,9.70
2018-07-21T22:13:56.814Z,8.57
2018-07-21T22:16:26.988Z,8.63
2018-07-21T22:18:57.385Z,9.37
2018-07-21T22:21:27.723Z,8.70
2018-07-21T22:23:58.486Z,9.37
2018-07-21T22:26:29.690Z,9.50
2018-07-21T22:29:00.991Z,9.13
2018-07-21T22:31:30.918Z,9.03
2018-07-21T22:34:01.054Z,9.27
2018-07-21T22:36:30.305Z,9.20
2018-07-21T22:39:00.721Z,9.33
2018-07-21T22:41:30.647Z,9.93
2018-07-21T22:44:01.838Z,9.10
2018-07-21T22:46:30.659Z,9.43
2018-07-21T22:49:00.524Z,9.33
2018-07-21T22:51:30.880Z,9.10
2018-07-21T22:54:01.877Z,9.40
2018-07-21T22:56:32.047Z,9.17
2018-07-21T22:59:02.501Z,9.60
2018-07-21T23:01:32.086Z,9.30
2018-07-21T23:04:01.803Z,9.10
2018-07-21T23:06:31.297Z,9.87
2018-07-21T23:09:01.703Z,9.57
2018-07-21T23:11:33.994Z,9.57
2018-07-21T23:14:04.846Z,9.07
2018-07-21T23:16:35.522Z,10.03
2018-07-21T23:19:05.016Z,9.97
2018-07-21T23:21:34.823Z,10.00
2018-07-21T23:24:05.285Z,10.33
2018-07-21T23:26:36.106Z,9.87
2018-07-21T23:29:05.947Z,9.80
2018-07-21T23:31:36.540Z,9.43
2018-07-21T23:34:06.930Z,9.90
2018-07-21T23:36:38.454Z,10.03
2018-07-21T23:39:11.065Z,9.60
2018-07-21T23:41:40.562Z,10.00
2018-07-21T23:44:09.957Z,9.63
2018-07-21T23:46:39.983Z,9.60
2018-07-21T23:49:09.757Z,10.13
2018-07-21T23:51:40.403Z,10.07
2018-07-21T23:54:11.150Z,10.30
2018-07-21T23:56:41.002Z,10.27
2018-07-21T23:59:11.984Z,10.03
